METAR Data
IDs: Format: Raw Decoded Include TAF

Data at: 0021 UTC 30 May 2020

PKWA 300020Z AUTO 06012KT 10SM SCT021 BKN039 OVC065 30/26 A2994 RMK AO2 T02980260